sensor_id;sensor_type;location;lat;lon;timestamp;temperature;humidity
36990;DHT22;22898;52.102;5.776;2022-08-11T00:00:03;28.30;59.50
36990;DHT22;22898;52.102;5.776;2022-08-11T00:02:39;28.30;59.40
36990;DHT22;22898;52.102;5.776;2022-08-11T00:05:16;28.30;59.50
36990;DHT22;22898;52.102;5.776;2022-08-11T00:07:45;28.30;59.50
36990;DHT22;22898;52.102;5.776;2022-08-11T00:10:25;28.30;59.50
36990;DHT22;22898;52.102;5.776;2022-08-11T00:15:25;28.10;60.00
36990;DHT22;22898;52.102;5.776;2022-08-11T00:17:59;28.20;59.90
36990;DHT22;22898;52.102;5.776;2022-08-11T00:20:32;28.20;59.70
36990;DHT22;22898;52.102;5.776;2022-08-11T00:23:13;28.30;59.70
36990;DHT22;22898;52.102;5.776;2022-08-11T00:25:45;28.20;59.90
36990;DHT22;22898;52.102;5.776;2022-08-11T00:28:40;28.10;60.00
36990;DHT22;22898;52.102;5.776;2022-08-11T00:31:08;28.10;60.20
36990;DHT22;22898;52.102;5.776;2022-08-11T00:33:41;28.10;60.30
36990;DHT22;22898;52.102;5.776;2022-08-11T00:36:08;28.10;60.30
36990;DHT22;22898;52.102;5.776;2022-08-11T00:38:40;28.10;60.20
36990;DHT22;22898;52.102;5.776;2022-08-11T01:01:57;27.70;62.00
36990;DHT22;22898;52.102;5.776;2022-08-11T01:04:55;27.60;62.00
36990;DHT22;22898;52.102;5.776;2022-08-11T01:15:36;27.60;62.70
36990;DHT22;22898;52.102;5.776;2022-08-11T01:24:08;27.60;63.10
36990;DHT22;22898;52.102;5.776;2022-08-11T01:29:23;27.40;64.00
36990;DHT22;22898;52.102;5.776;2022-08-11T01:37:52;27.40;64.40
36990;DHT22;22898;52.102;5.776;2022-08-11T01:43:18;27.40;64.60
36990;DHT22;22898;52.102;5.776;2022-08-11T01:49:14;27.10;65.40
36990;DHT22;22898;52.102;5.776;2022-08-11T01:54:36;27.20;65.80
36990;DHT22;22898;52.102;5.776;2022-08-11T01:59:38;27.10;65.80
36990;DHT22;22898;52.102;5.776;2022-08-11T02:02:30;27.20;65.90
36990;DHT22;22898;52.102;5.776;2022-08-11T02:05:46;27.10;66.10
36990;DHT22;22898;52.102;5.776;2022-08-11T02:11:26;26.90;66.80
36990;DHT22;22898;52.102;5.776;2022-08-11T02:16:57;26.80;67.30
36990;DHT22;22898;52.102;5.776;2022-08-11T02:22:30;26.80;67.70
36990;DHT22;22898;52.102;5.776;2022-08-11T02:31:07;26.80;68.20
36990;DHT22;22898;52.102;5.776;2022-08-11T02:34:04;26.80;68.60
36990;DHT22;22898;52.102;5.776;2022-08-11T02:36:48;26.70;68.80
36990;DHT22;22898;52.102;5.776;2022-08-11T02:39:19;26.70;69.10
36990;DHT22;22898;52.102;5.776;2022-08-11T02:50:36;26.40;70.30
36990;DHT22;22898;52.102;5.776;2022-08-11T02:53:25;26.40;70.20
36990;DHT22;22898;52.102;5.776;2022-08-11T02:59:26;26.50;70.30
36990;DHT22;22898;52.102;5.776;2022-08-11T03:11:06;26.50;70.70
36990;DHT22;22898;52.102;5.776;2022-08-11T03:17:05;26.40;71.10
36990;DHT22;22898;52.102;5.776;2022-08-11T03:20:05;26.40;70.90
36990;DHT22;22898;52.102;5.776;2022-08-11T03:22:56;26.30;71.50
36990;DHT22;22898;52.102;5.776;2022-08-11T03:25:37;26.30;71.50
36990;DHT22;22898;52.102;5.776;2022-08-11T03:31:22;26.30;71.80
36990;DHT22;22898;52.102;5.776;2022-08-11T03:34:05;26.30;71.80
36990;DHT22;22898;52.102;5.776;2022-08-11T03:53:48;26.10;72.20
36990;DHT22;22898;52.102;5.776;2022-08-11T03:56:41;26.10;72.40
36990;DHT22;22898;52.102;5.776;2022-08-11T04:24:01;26.00;72.70
36990;DHT22;22898;52.102;5.776;2022-08-11T04:35:03;25.90;72.80
36990;DHT22;22898;52.102;5.776;2022-08-11T04:40:11;25.90;73.00
36990;DHT22;22898;52.102;5.776;2022-08-11T04:46:04;25.90;73.20
36990;DHT22;22898;52.102;5.776;2022-08-11T04:51:45;25.80;73.60
36990;DHT22;22898;52.102;5.776;2022-08-11T05:01:18;25.80;73.90
36990;DHT22;22898;52.102;5.776;2022-08-11T05:10:06;25.80;73.90
36990;DHT22;22898;52.102;5.776;2022-08-11T05:12:56;25.80;73.90
36990;DHT22;22898;52.102;5.776;2022-08-11T05:15:51;25.70;74.10
36990;DHT22;22898;52.102;5.776;2022-08-11T05:18:48;25.80;74.10
36990;DHT22;22898;52.102;5.776;2022-08-11T05:21:34;25.80;73.80
36990;DHT22;22898;52.102;5.776;2022-08-11T05:24:23;25.90;73.60
36990;DHT22;22898;52.102;5.776;2022-08-11T05:27:11;26.00;73.80
36990;DHT22;22898;52.102;5.776;2022-08-11T05:30:02;26.00;73.80
36990;DHT22;22898;52.102;5.776;2022-08-11T05:33:08;26.50;72.40
36990;DHT22;22898;52.102;5.776;2022-08-11T05:36:07;27.20;70.20
36990;DHT22;22898;52.102;5.776;2022-08-11T05:38:37;27.30;69.90
36990;DHT22;22898;52.102;5.776;2022-08-11T05:41:24;27.20;70.10
36990;DHT22;22898;52.102;5.776;2022-08-11T05:44:09;27.10;70.60
36990;DHT22;22898;52.102;5.776;2022-08-11T05:47:01;26.90;71.20
36990;DHT22;22898;52.102;5.776;2022-08-11T05:49:48;26.80;71.70
36990;DHT22;22898;52.102;5.776;2022-08-11T05:52:34;26.80;71.40
36990;DHT22;22898;52.102;5.776;2022-08-11T05:55:20;26.80;71.20
36990;DHT22;22898;52.102;5.776;2022-08-11T05:58:06;26.90;70.90
36990;DHT22;22898;52.102;5.776;2022-08-11T06:00:44;27.00;70.30
36990;DHT22;22898;52.102;5.776;2022-08-11T06:03:21;27.00;70.00
36990;DHT22;22898;52.102;5.776;2022-08-11T06:05:49;27.00;70.00
36990;DHT22;22898;52.102;5.776;2022-08-11T06:08:16;27.10;69.90
36990;DHT22;22898;52.102;5.776;2022-08-11T06:10:43;27.20;69.60
36990;DHT22;22898;52.102;5.776;2022-08-11T06:13:10;27.20;69.00
36990;DHT22;22898;52.102;5.776;2022-08-11T06:15:47;27.30;68.90
36990;DHT22;22898;52.102;5.776;2022-08-11T06:18:14;27.30;68.00
36990;DHT22;22898;52.102;5.776;2022-08-11T06:20:58;27.40;67.70
36990;DHT22;22898;52.102;5.776;2022-08-11T06:23:30;27.50;67.70
36990;DHT22;22898;52.102;5.776;2022-08-11T06:25:57;27.50;67.60
36990;DHT22;22898;52.102;5.776;2022-08-11T06:28:36;27.60;67.60
36990;DHT22;22898;52.102;5.776;2022-08-11T06:31:20;27.80;67.10
36990;DHT22;22898;52.102;5.776;2022-08-11T06:36:56;28.10;66.00
36990;DHT22;22898;52.102;5.776;2022-08-11T06:39:38;28.10;65.90
36990;DHT22;22898;52.102;5.776;2022-08-11T06:42:23;28.30;65.60
36990;DHT22;22898;52.102;5.776;2022-08-11T06:45:28;28.40;64.10
36990;DHT22;22898;52.102;5.776;2022-08-11T06:47:45;28.40;63.50
36990;DHT22;22898;52.102;5.776;2022-08-11T06:50:16;28.30;64.80
36990;DHT22;22898;52.102;5.776;2022-08-11T06:53:04;28.20;63.40
36990;DHT22;22898;52.102;5.776;2022-08-11T06:55:30;28.00;63.90
36990;DHT22;22898;52.102;5.776;2022-08-11T06:58:19;28.20;64.20
36990;DHT22;22898;52.102;5.776;2022-08-11T07:01:12;28.30;63.40
36990;DHT22;22898;52.102;5.776;2022-08-11T07:03:55;28.60;62.40
36990;DHT22;22898;52.102;5.776;2022-08-11T07:12:44;28.90;61.50
36990;DHT22;22898;52.102;5.776;2022-08-11T07:15:33;29.00;61.20
36990;DHT22;22898;52.102;5.776;2022-08-11T07:18:19;29.00;60.80
36990;DHT22;22898;52.102;5.776;2022-08-11T07:21:23;29.40;61.00
36990;DHT22;22898;52.102;5.776;2022-08-11T07:24:13;29.50;59.60
36990;DHT22;22898;52.102;5.776;2022-08-11T07:26:59;29.50;60.30
36990;DHT22;22898;52.102;5.776;2022-08-11T07:29:46;29.60;59.70
36990;DHT22;22898;52.102;5.776;2022-08-11T07:32:19;29.80;59.00
36990;DHT22;22898;52.102;5.776;2022-08-11T07:34:51;30.00;58.70
36990;DHT22;22898;52.102;5.776;2022-08-11T07:37:20;30.20;58.10
36990;DHT22;22898;52.102;5.776;2022-08-11T07:39:48;30.20;57.80
36990;DHT22;22898;52.102;5.776;2022-08-11T07:42:17;30.30;57.90
36990;DHT22;22898;52.102;5.776;2022-08-11T07:44:46;30.30;57.30
36990;DHT22;22898;52.102;5.776;2022-08-11T07:47:31;30.40;57.00
36990;DHT22;22898;52.102;5.776;2022-08-11T07:50:17;30.60;57.00
36990;DHT22;22898;52.102;5.776;2022-08-11T07:53:03;30.60;56.70
36990;DHT22;22898;52.102;5.776;2022-08-11T07:55:29;30.60;57.30
36990;DHT22;22898;52.102;5.776;2022-08-11T07:57:59;30.80;56.90
36990;DHT22;22898;52.102;5.776;2022-08-11T08:00:49;30.80;56.10
36990;DHT22;22898;52.102;5.776;2022-08-11T08:03:33;30.90;57.00
36990;DHT22;22898;52.102;5.776;2022-08-11T08:06:18;31.20;55.20
36990;DHT22;22898;52.102;5.776;2022-08-11T08:09:05;31.40;55.20
36990;DHT22;22898;52.102;5.776;2022-08-11T08:11:50;31.40;55.60
36990;DHT22;22898;52.102;5.776;2022-08-11T08:14:34;31.50;54.60
36990;DHT22;22898;52.102;5.776;2022-08-11T08:17:20;31.60;54.90
36990;DHT22;22898;52.102;5.776;2022-08-11T08:20:05;31.80;53.50
36990;DHT22;22898;52.102;5.776;2022-08-11T08:22:34;31.90;54.00
36990;DHT22;22898;52.102;5.776;2022-08-11T08:25:01;32.00;53.50
36990;DHT22;22898;52.102;5.776;2022-08-11T08:27:27;32.10;52.40
36990;DHT22;22898;52.102;5.776;2022-08-11T08:29:53;32.20;53.00
36990;DHT22;22898;52.102;5.776;2022-08-11T08:32:39;32.30;52.80
36990;DHT22;22898;52.102;5.776;2022-08-11T08:35:06;32.20;52.60
36990;DHT22;22898;52.102;5.776;2022-08-11T08:37:32;32.40;52.40
36990;DHT22;22898;52.102;5.776;2022-08-11T08:39:58;32.40;50.00
36990;DHT22;22898;52.102;5.776;2022-08-11T08:42:29;32.50;51.00
36990;DHT22;22898;52.102;5.776;2022-08-11T08:45:09;32.60;50.70
36990;DHT22;22898;52.102;5.776;2022-08-11T08:47:37;32.80;49.50
36990;DHT22;22898;52.102;5.776;2022-08-11T08:50:07;32.80;49.50
36990;DHT22;22898;52.102;5.776;2022-08-11T08:52:37;32.90;49.60
36990;DHT22;22898;52.102;5.776;2022-08-11T08:55:08;33.10;50.20
36990;DHT22;22898;52.102;5.776;2022-08-11T08:57:36;33.30;50.20
36990;DHT22;22898;52.102;5.776;2022-08-11T09:00:04;33.50;50.50
36990;DHT22;22898;52.102;5.776;2022-08-11T09:02:31;33.70;50.00
36990;DHT22;22898;52.102;5.776;2022-08-11T09:04:57;33.70;49.00
36990;DHT22;22898;52.102;5.776;2022-08-11T09:07:23;33.70;49.10
36990;DHT22;22898;52.102;5.776;2022-08-11T09:09:52;33.50;49.70
36990;DHT22;22898;52.102;5.776;2022-08-11T09:12:20;33.50;49.80
36990;DHT22;22898;52.102;5.776;2022-08-11T09:14:50;33.60;48.70
36990;DHT22;22898;52.102;5.776;2022-08-11T09:17:29;33.60;48.10
36990;DHT22;22898;52.102;5.776;2022-08-11T09:22:37;33.70;49.10
36990;DHT22;22898;52.102;5.776;2022-08-11T09:25:25;33.90;48.30
36990;DHT22;22898;52.102;5.776;2022-08-11T09:28:12;34.00;48.50
36990;DHT22;22898;52.102;5.776;2022-08-11T09:30:41;34.10;46.90
36990;DHT22;22898;52.102;5.776;2022-08-11T09:33:09;33.90;47.00
36990;DHT22;22898;52.102;5.776;2022-08-11T09:35:37;33.80;47.10
36990;DHT22;22898;52.102;5.776;2022-08-11T09:38:04;34.00;48.10
36990;DHT22;22898;52.102;5.776;2022-08-11T09:40:50;34.00;47.30
36990;DHT22;22898;52.102;5.776;2022-08-11T09:43:17;33.70;46.80
36990;DHT22;22898;52.102;5.776;2022-08-11T09:46:03;33.70;45.80
36990;DHT22;22898;52.102;5.776;2022-08-11T09:48:43;33.80;46.00
36990;DHT22;22898;52.102;5.776;2022-08-11T09:51:11;33.80;46.00
36990;DHT22;22898;52.102;5.776;2022-08-11T09:53:42;33.80;46.60
36990;DHT22;22898;52.102;5.776;2022-08-11T09:56:14;33.90;45.90
36990;DHT22;22898;52.102;5.776;2022-08-11T09:59:00;34.20;45.80
36990;DHT22;22898;52.102;5.776;2022-08-11T10:01:31;34.40;46.10
36990;DHT22;22898;52.102;5.776;2022-08-11T10:04:21;34.50;44.90
36990;DHT22;22898;52.102;5.776;2022-08-11T10:06:51;34.60;45.00
36990;DHT22;22898;52.102;5.776;2022-08-11T10:09:35;34.60;45.00
36990;DHT22;22898;52.102;5.776;2022-08-11T10:12:01;34.80;45.50
36990;DHT22;22898;52.102;5.776;2022-08-11T10:14:29;34.90;44.70
36990;DHT22;22898;52.102;5.776;2022-08-11T10:17:15;34.70;44.70
36990;DHT22;22898;52.102;5.776;2022-08-11T10:19:44;34.50;44.90
36990;DHT22;22898;52.102;5.776;2022-08-11T10:22:11;34.60;45.80
36990;DHT22;22898;52.102;5.776;2022-08-11T10:24:57;34.30;44.40
36990;DHT22;22898;52.102;5.776;2022-08-11T10:27:42;34.30;45.00
36990;DHT22;22898;52.102;5.776;2022-08-11T10:30:09;34.50;45.10
36990;DHT22;22898;52.102;5.776;2022-08-11T10:32:55;34.70;45.00
36990;DHT22;22898;52.102;5.776;2022-08-11T10:35:47;35.20;44.70
36990;DHT22;22898;52.102;5.776;2022-08-11T10:38:13;35.10;43.90
36990;DHT22;22898;52.102;5.776;2022-08-11T10:40:40;35.00;45.00
36990;DHT22;22898;52.102;5.776;2022-08-11T10:43:11;34.90;44.70
36990;DHT22;22898;52.102;5.776;2022-08-11T10:45:41;35.00;44.90
36990;DHT22;22898;52.102;5.776;2022-08-11T10:48:28;35.10;44.80
36990;DHT22;22898;52.102;5.776;2022-08-11T10:50:54;35.00;44.80
36990;DHT22;22898;52.102;5.776;2022-08-11T10:53:45;34.90;44.20
36990;DHT22;22898;52.102;5.776;2022-08-11T10:56:37;35.00;44.30
36990;DHT22;22898;52.102;5.776;2022-08-11T10:59:27;35.20;43.80
36990;DHT22;22898;52.102;5.776;2022-08-11T11:01:54;35.10;41.70
36990;DHT22;22898;52.102;5.776;2022-08-11T11:04:27;35.20;43.40
36990;DHT22;22898;52.102;5.776;2022-08-11T11:07:07;35.30;43.80
36990;DHT22;22898;52.102;5.776;2022-08-11T11:09:48;35.40;41.90
36990;DHT22;22898;52.102;5.776;2022-08-11T11:12:36;35.30;39.90
36990;DHT22;22898;52.102;5.776;2022-08-11T11:15:23;35.20;41.10
36990;DHT22;22898;52.102;5.776;2022-08-11T11:18:13;35.30;42.00
36990;DHT22;22898;52.102;5.776;2022-08-11T11:20:40;35.40;41.90
36990;DHT22;22898;52.102;5.776;2022-08-11T11:26:24;35.70;42.00
36990;DHT22;22898;52.102;5.776;2022-08-11T11:29:25;36.00;41.60
36990;DHT22;22898;52.102;5.776;2022-08-11T11:37:31;36.30;41.40
36990;DHT22;22898;52.102;5.776;2022-08-11T11:40:02;36.10;40.80
36990;DHT22;22898;52.102;5.776;2022-08-11T11:42:35;36.30;41.10
36990;DHT22;22898;52.102;5.776;2022-08-11T11:45:02;36.40;40.40
36990;DHT22;22898;52.102;5.776;2022-08-11T11:47:29;36.30;41.50
36990;DHT22;22898;52.102;5.776;2022-08-11T11:49:56;36.50;40.80
36990;DHT22;22898;52.102;5.776;2022-08-11T11:52:22;36.50;40.20
36990;DHT22;22898;52.102;5.776;2022-08-11T11:54:51;36.50;40.20
36990;DHT22;22898;52.102;5.776;2022-08-11T11:57:19;36.60;40.40
36990;DHT22;22898;52.102;5.776;2022-08-11T12:00:06;36.80;40.50
36990;DHT22;22898;52.102;5.776;2022-08-11T12:02:52;36.80;40.60
36990;DHT22;22898;52.102;5.776;2022-08-11T12:05:18;36.90;40.10
36990;DHT22;22898;52.102;5.776;2022-08-11T12:07:44;36.60;40.00
36990;DHT22;22898;52.102;5.776;2022-08-11T12:10:29;36.60;39.70
36990;DHT22;22898;52.102;5.776;2022-08-11T12:12:55;36.60;40.60
36990;DHT22;22898;52.102;5.776;2022-08-11T12:15:42;36.90;39.30
36990;DHT22;22898;52.102;5.776;2022-08-11T12:18:09;36.60;40.30
36990;DHT22;22898;52.102;5.776;2022-08-11T12:20:36;36.50;40.70
36990;DHT22;22898;52.102;5.776;2022-08-11T12:23:02;36.60;41.00
36990;DHT22;22898;52.102;5.776;2022-08-11T12:25:47;36.60;40.90
36990;DHT22;22898;52.102;5.776;2022-08-11T12:28:39;36.70;41.50
36990;DHT22;22898;52.102;5.776;2022-08-11T12:31:06;37.10;40.20
36990;DHT22;22898;52.102;5.776;2022-08-11T12:33:35;37.20;39.80
36990;DHT22;22898;52.102;5.776;2022-08-11T12:36:01;37.20;40.80
36990;DHT22;22898;52.102;5.776;2022-08-11T12:38:27;37.40;40.40
36990;DHT22;22898;52.102;5.776;2022-08-11T12:40:53;37.30;39.70
36990;DHT22;22898;52.102;5.776;2022-08-11T12:43:42;37.20;39.90
36990;DHT22;22898;52.102;5.776;2022-08-11T12:46:33;37.10;38.60
36990;DHT22;22898;52.102;5.776;2022-08-11T12:49:06;37.00;38.40
36990;DHT22;22898;52.102;5.776;2022-08-11T12:51:54;37.00;38.70
36990;DHT22;22898;52.102;5.776;2022-08-11T12:54:33;36.80;39.30
36990;DHT22;22898;52.102;5.776;2022-08-11T12:57:04;36.70;39.00
36990;DHT22;22898;52.102;5.776;2022-08-11T12:59:50;36.80;39.70
36990;DHT22;22898;52.102;5.776;2022-08-11T13:02:34;37.10;39.20
36990;DHT22;22898;52.102;5.776;2022-08-11T13:05:19;37.20;39.50
36990;DHT22;22898;52.102;5.776;2022-08-11T13:07:46;37.40;38.50
36990;DHT22;22898;52.102;5.776;2022-08-11T13:10:15;37.60;38.70
36990;DHT22;22898;52.102;5.776;2022-08-11T13:13:06;37.80;38.80
36990;DHT22;22898;52.102;5.776;2022-08-11T13:15:33;37.80;38.50
36990;DHT22;22898;52.102;5.776;2022-08-11T13:18:01;37.90;39.10
36990;DHT22;22898;52.102;5.776;2022-08-11T13:20:28;38.20;38.60
36990;DHT22;22898;52.102;5.776;2022-08-11T13:22:56;38.20;38.60
36990;DHT22;22898;52.102;5.776;2022-08-11T13:25:25;38.00;38.00
36990;DHT22;22898;52.102;5.776;2022-08-11T13:27:55;37.80;38.60
36990;DHT22;22898;52.102;5.776;2022-08-11T13:30:24;37.60;39.00
36990;DHT22;22898;52.102;5.776;2022-08-11T13:33:09;37.90;38.30
36990;DHT22;22898;52.102;5.776;2022-08-11T13:35:37;37.60;38.50
36990;DHT22;22898;52.102;5.776;2022-08-11T13:38:05;37.40;38.10
36990;DHT22;22898;52.102;5.776;2022-08-11T13:40:32;37.20;37.90
36990;DHT22;22898;52.102;5.776;2022-08-11T13:42:58;37.20;38.00
36990;DHT22;22898;52.102;5.776;2022-08-11T13:45:25;37.20;38.00
36990;DHT22;22898;52.102;5.776;2022-08-11T13:47:54;37.20;38.10
36990;DHT22;22898;52.102;5.776;2022-08-11T13:50:22;37.10;38.20
36990;DHT22;22898;52.102;5.776;2022-08-11T13:53:09;36.90;37.80
36990;DHT22;22898;52.102;5.776;2022-08-11T13:55:36;37.00;38.40
36990;DHT22;22898;52.102;5.776;2022-08-11T13:58:02;37.20;38.70
36990;DHT22;22898;52.102;5.776;2022-08-11T14:00:28;37.30;38.30
36990;DHT22;22898;52.102;5.776;2022-08-11T14:02:55;37.60;38.10
36990;DHT22;22898;52.102;5.776;2022-08-11T14:05:25;37.80;38.20
36990;DHT22;22898;52.102;5.776;2022-08-11T14:07:58;37.80;37.60
36990;DHT22;22898;52.102;5.776;2022-08-11T14:10:27;37.90;37.70
36990;DHT22;22898;52.102;5.776;2022-08-11T14:13:13;38.00;37.60
36990;DHT22;22898;52.102;5.776;2022-08-11T14:16:03;38.00;36.70
36990;DHT22;22898;52.102;5.776;2022-08-11T14:18:32;37.70;36.50
36990;DHT22;22898;52.102;5.776;2022-08-11T14:21:02;37.50;36.60
36990;DHT22;22898;52.102;5.776;2022-08-11T14:23:50;37.20;36.90
36990;DHT22;22898;52.102;5.776;2022-08-11T14:26:20;37.30;37.30
36990;DHT22;22898;52.102;5.776;2022-08-11T14:29:01;37.40;36.90
36990;DHT22;22898;52.102;5.776;2022-08-11T14:31:31;37.30;37.10
36990;DHT22;22898;52.102;5.776;2022-08-11T14:34:01;37.50;36.30
36990;DHT22;22898;52.102;5.776;2022-08-11T14:36:30;37.70;36.50
36990;DHT22;22898;52.102;5.776;2022-08-11T14:38:57;37.90;36.00
36990;DHT22;22898;52.102;5.776;2022-08-11T14:41:23;37.90;36.50
36990;DHT22;22898;52.102;5.776;2022-08-11T14:44:08;37.90;35.20
36990;DHT22;22898;52.102;5.776;2022-08-11T14:46:54;37.60;36.20
36990;DHT22;22898;52.102;5.776;2022-08-11T14:49:36;37.40;35.90
36990;DHT22;22898;52.102;5.776;2022-08-11T14:52:09;37.20;36.30
36990;DHT22;22898;52.102;5.776;2022-08-11T14:54:35;37.30;36.40
36990;DHT22;22898;52.102;5.776;2022-08-11T14:57:20;37.60;36.00
36990;DHT22;22898;52.102;5.776;2022-08-11T14:59:49;37.80;35.60
36990;DHT22;22898;52.102;5.776;2022-08-11T15:02:17;37.90;35.90
36990;DHT22;22898;52.102;5.776;2022-08-11T15:05:03;37.90;36.10
36990;DHT22;22898;52.102;5.776;2022-08-11T15:07:31;37.80;37.40
36990;DHT22;22898;52.102;5.776;2022-08-11T15:09:59;37.80;36.30
36990;DHT22;22898;52.102;5.776;2022-08-11T15:12:25;38.00;36.20
36990;DHT22;22898;52.102;5.776;2022-08-11T15:14:51;38.00;36.90
36990;DHT22;22898;52.102;5.776;2022-08-11T15:17:38;37.80;37.40
36990;DHT22;22898;52.102;5.776;2022-08-11T15:20:10;38.10;37.10
36990;DHT22;22898;52.102;5.776;2022-08-11T15:22:54;38.20;37.10
36990;DHT22;22898;52.102;5.776;2022-08-11T15:25:42;38.20;37.10
36990;DHT22;22898;52.102;5.776;2022-08-11T15:28:09;37.90;36.90
36990;DHT22;22898;52.102;5.776;2022-08-11T15:30:56;37.70;37.10
36990;DHT22;22898;52.102;5.776;2022-08-11T15:33:43;37.50;37.50
36990;DHT22;22898;52.102;5.776;2022-08-11T15:36:29;37.40;37.40
36990;DHT22;22898;52.102;5.776;2022-08-11T15:39:40;37.50;37.90
36990;DHT22;22898;52.102;5.776;2022-08-11T15:42:31;37.60;37.10
36990;DHT22;22898;52.102;5.776;2022-08-11T15:45:21;37.50;37.10
36990;DHT22;22898;52.102;5.776;2022-08-11T15:48:07;37.60;37.20
36990;DHT22;22898;52.102;5.776;2022-08-11T15:50:38;37.80;37.30
36990;DHT22;22898;52.102;5.776;2022-08-11T15:53:16;38.00;37.50
36990;DHT22;22898;52.102;5.776;2022-08-11T15:55:42;37.90;37.40
36990;DHT22;22898;52.102;5.776;2022-08-11T15:58:08;37.40;37.90
36990;DHT22;22898;52.102;5.776;2022-08-11T16:00:56;37.30;38.30
36990;DHT22;22898;52.102;5.776;2022-08-11T16:03:46;37.40;38.00
36990;DHT22;22898;52.102;5.776;2022-08-11T16:06:52;37.40;38.30
36990;DHT22;22898;52.102;5.776;2022-08-11T16:09:37;37.50;37.60
36990;DHT22;22898;52.102;5.776;2022-08-11T16:12:08;37.50;38.40
36990;DHT22;22898;52.102;5.776;2022-08-11T16:14:38;37.70;37.60
36990;DHT22;22898;52.102;5.776;2022-08-11T16:17:25;37.60;38.00
36990;DHT22;22898;52.102;5.776;2022-08-11T16:19:53;37.50;38.00
36990;DHT22;22898;52.102;5.776;2022-08-11T16:22:29;37.60;38.40
36990;DHT22;22898;52.102;5.776;2022-08-11T16:25:19;38.00;38.10
36990;DHT22;22898;52.102;5.776;2022-08-11T16:27:56;39.20;37.30
36990;DHT22;22898;52.102;5.776;2022-08-11T16:30:34;40.70;36.00
36990;DHT22;22898;52.102;5.776;2022-08-11T16:33:01;41.70;35.00
36990;DHT22;22898;52.102;5.776;2022-08-11T16:35:35;42.90;34.20
36990;DHT22;22898;52.102;5.776;2022-08-11T16:38:25;43.90;33.20
36990;DHT22;22898;52.102;5.776;2022-08-11T16:41:12;44.40;32.60
36990;DHT22;22898;52.102;5.776;2022-08-11T16:43:46;43.90;32.80
36990;DHT22;22898;52.102;5.776;2022-08-11T16:46:31;43.20;33.40
36990;DHT22;22898;52.102;5.776;2022-08-11T16:49:20;42.10;34.30
36990;DHT22;22898;52.102;5.776;2022-08-11T16:51:46;41.10;35.20
36990;DHT22;22898;52.102;5.776;2022-08-11T16:54:12;40.40;36.50
36990;DHT22;22898;52.102;5.776;2022-08-11T16:56:42;39.90;36.20
36990;DHT22;22898;52.102;5.776;2022-08-11T16:59:16;39.30;36.80
36990;DHT22;22898;52.102;5.776;2022-08-11T17:04:40;38.20;37.30
36990;DHT22;22898;52.102;5.776;2022-08-11T17:07:28;38.10;37.20
36990;DHT22;22898;52.102;5.776;2022-08-11T17:10:17;37.60;37.20
36990;DHT22;22898;52.102;5.776;2022-08-11T17:13:03;37.30;37.70
36990;DHT22;22898;52.102;5.776;2022-08-11T17:15:43;37.10;37.90
36990;DHT22;22898;52.102;5.776;2022-08-11T17:18:29;37.00;37.80
36990;DHT22;22898;52.102;5.776;2022-08-11T17:21:05;36.70;38.30
36990;DHT22;22898;52.102;5.776;2022-08-11T17:23:33;36.60;38.30
36990;DHT22;22898;52.102;5.776;2022-08-11T17:26:23;36.70;38.30
36990;DHT22;22898;52.102;5.776;2022-08-11T17:28:57;36.80;38.60
36990;DHT22;22898;52.102;5.776;2022-08-11T17:31:23;36.90;38.20
36990;DHT22;22898;52.102;5.776;2022-08-11T17:34:21;36.90;38.20
36990;DHT22;22898;52.102;5.776;2022-08-11T17:37:06;36.90;38.60
36990;DHT22;22898;52.102;5.776;2022-08-11T17:39:32;36.80;38.80
36990;DHT22;22898;52.102;5.776;2022-08-11T17:41:59;36.70;38.70
36990;DHT22;22898;52.102;5.776;2022-08-11T17:44:44;36.50;38.90
36990;DHT22;22898;52.102;5.776;2022-08-11T17:47:30;36.40;38.70
36990;DHT22;22898;52.102;5.776;2022-08-11T17:50:15;36.10;38.90
36990;DHT22;22898;52.102;5.776;2022-08-11T17:52:42;36.20;39.40
36990;DHT22;22898;52.102;5.776;2022-08-11T17:55:27;36.30;39.10
36990;DHT22;22898;52.102;5.776;2022-08-11T17:58:13;36.20;39.10
36990;DHT22;22898;52.102;5.776;2022-08-11T18:00:58;36.30;39.20
36990;DHT22;22898;52.102;5.776;2022-08-11T18:03:25;36.50;38.90
36990;DHT22;22898;52.102;5.776;2022-08-11T18:05:59;36.40;38.70
36990;DHT22;22898;52.102;5.776;2022-08-11T18:08:28;36.30;39.40
36990;DHT22;22898;52.102;5.776;2022-08-11T18:11:15;36.30;39.10
36990;DHT22;22898;52.102;5.776;2022-08-11T18:14:02;36.40;39.00
36990;DHT22;22898;52.102;5.776;2022-08-11T18:16:47;36.40;39.10
36990;DHT22;22898;52.102;5.776;2022-08-11T18:19:32;36.30;39.50
36990;DHT22;22898;52.102;5.776;2022-08-11T18:22:21;36.10;39.00
36990;DHT22;22898;52.102;5.776;2022-08-11T18:25:11;36.10;39.50
36990;DHT22;22898;52.102;5.776;2022-08-11T18:27:56;36.20;39.50
36990;DHT22;22898;52.102;5.776;2022-08-11T18:30:44;36.30;39.90
36990;DHT22;22898;52.102;5.776;2022-08-11T18:33:36;36.20;39.70
36990;DHT22;22898;52.102;5.776;2022-08-11T18:36:29;36.10;39.70
36990;DHT22;22898;52.102;5.776;2022-08-11T18:39:14;36.10;39.60
36990;DHT22;22898;52.102;5.776;2022-08-11T18:42:07;36.00;40.20
36990;DHT22;22898;52.102;5.776;2022-08-11T18:44:52;36.00;40.40
36990;DHT22;22898;52.102;5.776;2022-08-11T18:47:39;36.00;40.40
36990;DHT22;22898;52.102;5.776;2022-08-11T18:50:23;35.90;39.80
36990;DHT22;22898;52.102;5.776;2022-08-11T18:53:09;35.80;40.30
36990;DHT22;22898;52.102;5.776;2022-08-11T18:55:55;35.90;40.30
36990;DHT22;22898;52.102;5.776;2022-08-11T18:58:42;35.90;40.60
36990;DHT22;22898;52.102;5.776;2022-08-11T19:01:28;35.90;40.30
36990;DHT22;22898;52.102;5.776;2022-08-11T19:04:13;35.90;40.60
36990;DHT22;22898;52.102;5.776;2022-08-11T19:06:58;35.90;40.80
36990;DHT22;22898;52.102;5.776;2022-08-11T19:09:44;35.80;40.90
36990;DHT22;22898;52.102;5.776;2022-08-11T19:12:39;35.80;41.50
36990;DHT22;22898;52.102;5.776;2022-08-11T19:15:24;35.70;42.00
36990;DHT22;22898;52.102;5.776;2022-08-11T19:18:15;35.60;42.60
36990;DHT22;22898;52.102;5.776;2022-08-11T19:21:01;35.50;42.20
36990;DHT22;22898;52.102;5.776;2022-08-11T19:23:50;35.50;43.10
36990;DHT22;22898;52.102;5.776;2022-08-11T19:26:36;35.30;43.40
36990;DHT22;22898;52.102;5.776;2022-08-11T19:29:22;35.20;43.70
36990;DHT22;22898;52.102;5.776;2022-08-11T19:32:09;35.00;44.00
36990;DHT22;22898;52.102;5.776;2022-08-11T19:34:55;35.00;44.40
36990;DHT22;22898;52.102;5.776;2022-08-11T19:37:40;34.90;44.10
36990;DHT22;22898;52.102;5.776;2022-08-11T19:40:26;34.70;44.70
36990;DHT22;22898;52.102;5.776;2022-08-11T19:43:12;34.50;45.20
36990;DHT22;22898;52.102;5.776;2022-08-11T19:45:58;34.30;46.00
36990;DHT22;22898;52.102;5.776;2022-08-11T19:48:45;34.10;45.90
36990;DHT22;22898;52.102;5.776;2022-08-11T19:51:33;34.00;46.00
36990;DHT22;22898;52.102;5.776;2022-08-11T19:54:19;33.90;46.30